sensor_id;sensor_type;location;lat;lon;timestamp;P1;durP1;ratioP1;P2;durP2;ratioP2
9238;SDS011;4654;43.242;27.976;2024-02-26T00:01:52;12.17;;;9.00;;
9238;SDS011;4654;43.242;27.976;2024-02-26T00:04:19;12.13;;;10.00;;
9238;SDS011;4654;43.242;27.976;2024-02-26T00:06:47;11.13;;;8.90;;
9238;SDS011;4654;43.242;27.976;2024-02-26T00:09:15;10.67;;;8.77;;
9238;SDS011;4654;43.242;27.976;2024-02-26T00:11:42;14.30;;;9.13;;
9238;SDS011;4654;43.242;27.976;2024-02-26T00:14:10;11.67;;;8.80;;
9238;SDS011;4654;43.242;27.976;2024-02-26T00:16:39;12.23;;;8.73;;
9238;SDS011;4654;43.242;27.976;2024-02-26T00:19:08;9.97;;;8.53;;
9238;SDS011;4654;43.242;27.976;2024-02-26T00:21:39;10.77;;;8.23;;
9238;SDS011;4654;43.242;27.976;2024-02-26T00:24:07;11.67;;;8.40;;
9238;SDS011;4654;43.242;27.976;2024-02-26T00:26:34;10.80;;;8.47;;
9238;SDS011;4654;43.242;27.976;2024-02-26T00:29:01;11.40;;;8.40;;
9238;SDS011;4654;43.242;27.976;2024-02-26T00:31:28;9.87;;;8.20;;
9238;SDS011;4654;43.242;27.976;2024-02-26T00:33:56;13.37;;;8.83;;
9238;SDS011;4654;43.242;27.976;2024-02-26T00:36:24;9.83;;;8.43;;
9238;SDS011;4654;43.242;27.976;2024-02-26T00:38:51;9.87;;;8.00;;
9238;SDS011;4654;43.242;27.976;2024-02-26T00:41:19;11.63;;;8.87;;
9238;SDS011;4654;43.242;27.976;2024-02-26T00:43:46;10.27;;;9.10;;
9238;SDS011;4654;43.242;27.976;2024-02-26T00:46:14;13.80;;;9.03;;
9238;SDS011;4654;43.242;27.976;2024-02-26T00:48:41;12.10;;;9.07;;
9238;SDS011;4654;43.242;27.976;2024-02-26T00:51:08;15.00;;;8.30;;
9238;SDS011;4654;43.242;27.976;2024-02-26T00:53:37;11.43;;;8.93;;
9238;SDS011;4654;43.242;27.976;2024-02-26T00:56:04;11.03;;;8.93;;
9238;SDS011;4654;43.242;27.976;2024-02-26T00:58:31;10.00;;;8.70;;
9238;SDS011;4654;43.242;27.976;2024-02-26T01:00:59;11.30;;;8.90;;
9238;SDS011;4654;43.242;27.976;2024-02-26T01:03:26;10.80;;;8.77;;
9238;SDS011;4654;43.242;27.976;2024-02-26T01:05:53;10.93;;;8.67;;
9238;SDS011;4654;43.242;27.976;2024-02-26T01:08:20;9.63;;;8.63;;
9238;SDS011;4654;43.242;27.976;2024-02-26T01:10:49;12.33;;;8.90;;
9238;SDS011;4654;43.242;27.976;2024-02-26T01:13:16;10.33;;;8.27;;
9238;SDS011;4654;43.242;27.976;2024-02-26T01:15:43;14.30;;;9.90;;
9238;SDS011;4654;43.242;27.976;2024-02-26T01:18:11;10.63;;;9.00;;
9238;SDS011;4654;43.242;27.976;2024-02-26T01:20:39;12.40;;;10.27;;
9238;SDS011;4654;43.242;27.976;2024-02-26T01:23:06;11.80;;;10.03;;
9238;SDS011;4654;43.242;27.976;2024-02-26T01:25:33;10.50;;;9.30;;
9238;SDS011;4654;43.242;27.976;2024-02-26T01:28:01;10.83;;;9.73;;
9238;SDS011;4654;43.242;27.976;2024-02-26T01:30:29;14.07;;;10.20;;
9238;SDS011;4654;43.242;27.976;2024-02-26T01:32:56;14.37;;;10.47;;
9238;SDS011;4654;43.242;27.976;2024-02-26T01:35:23;13.67;;;9.93;;
9238;SDS011;4654;43.242;27.976;2024-02-26T01:37:51;11.73;;;10.20;;
9238;SDS011;4654;43.242;27.976;2024-02-26T01:40:18;12.43;;;9.37;;
9238;SDS011;4654;43.242;27.976;2024-02-26T01:42:46;12.47;;;9.97;;
9238;SDS011;4654;43.242;27.976;2024-02-26T01:45:15;16.40;;;11.07;;
9238;SDS011;4654;43.242;27.976;2024-02-26T01:47:48;14.13;;;10.47;;
9238;SDS011;4654;43.242;27.976;2024-02-26T01:50:17;12.93;;;10.70;;
9238;SDS011;4654;43.242;27.976;2024-02-26T01:52:44;13.90;;;10.47;;
9238;SDS011;4654;43.242;27.976;2024-02-26T01:55:13;13.93;;;10.60;;
9238;SDS011;4654;43.242;27.976;2024-02-26T01:57:41;13.33;;;10.00;;
9238;SDS011;4654;43.242;27.976;2024-02-26T02:00:10;12.27;;;10.17;;
9238;SDS011;4654;43.242;27.976;2024-02-26T02:02:40;12.57;;;10.83;;
9238;SDS011;4654;43.242;27.976;2024-02-26T02:05:10;14.83;;;11.13;;
9238;SDS011;4654;43.242;27.976;2024-02-26T02:07:39;14.87;;;10.40;;
9238;SDS011;4654;43.242;27.976;2024-02-26T02:10:07;16.03;;;11.80;;
9238;SDS011;4654;43.242;27.976;2024-02-26T02:12:35;19.30;;;10.83;;
9238;SDS011;4654;43.242;27.976;2024-02-26T02:15:05;14.10;;;10.90;;
9238;SDS011;4654;43.242;27.976;2024-02-26T02:17:33;14.00;;;10.93;;
9238;SDS011;4654;43.242;27.976;2024-02-26T02:20:02;14.97;;;11.87;;
9238;SDS011;4654;43.242;27.976;2024-02-26T02:22:31;19.20;;;11.87;;
9238;SDS011;4654;43.242;27.976;2024-02-26T02:24:58;15.17;;;10.80;;
9238;SDS011;4654;43.242;27.976;2024-02-26T02:27:26;17.10;;;11.20;;
9238;SDS011;4654;43.242;27.976;2024-02-26T02:29:55;14.17;;;10.87;;
9238;SDS011;4654;43.242;27.976;2024-02-26T02:32:22;13.83;;;10.33;;
9238;SDS011;4654;43.242;27.976;2024-02-26T02:34:51;13.63;;;9.87;;
9238;SDS011;4654;43.242;27.976;2024-02-26T02:37:19;17.97;;;10.47;;
9238;SDS011;4654;43.242;27.976;2024-02-26T02:39:48;16.70;;;9.50;;
9238;SDS011;4654;43.242;27.976;2024-02-26T02:42:15;17.57;;;10.80;;
9238;SDS011;4654;43.242;27.976;2024-02-26T02:44:42;13.73;;;9.83;;
9238;SDS011;4654;43.242;27.976;2024-02-26T02:47:09;13.83;;;10.03;;
9238;SDS011;4654;43.242;27.976;2024-02-26T02:49:37;12.70;;;10.20;;
9238;SDS011;4654;43.242;27.976;2024-02-26T02:52:04;15.57;;;10.33;;
9238;SDS011;4654;43.242;27.976;2024-02-26T02:54:31;15.10;;;10.07;;
9238;SDS011;4654;43.242;27.976;2024-02-26T02:57:00;13.73;;;9.53;;
9238;SDS011;4654;43.242;27.976;2024-02-26T02:59:27;15.80;;;9.87;;
9238;SDS011;4654;43.242;27.976;2024-02-26T03:01:54;13.90;;;9.83;;
9238;SDS011;4654;43.242;27.976;2024-02-26T03:04:22;13.73;;;9.57;;
9238;SDS011;4654;43.242;27.976;2024-02-26T03:06:49;15.23;;;10.17;;
9238;SDS011;4654;43.242;27.976;2024-02-26T03:09:16;14.60;;;9.00;;
9238;SDS011;4654;43.242;27.976;2024-02-26T03:11:43;14.77;;;9.60;;
9238;SDS011;4654;43.242;27.976;2024-02-26T03:14:12;17.67;;;9.10;;
9238;SDS011;4654;43.242;27.976;2024-02-26T03:16:39;14.17;;;9.60;;
9238;SDS011;4654;43.242;27.976;2024-02-26T03:19:06;15.47;;;9.93;;
9238;SDS011;4654;43.242;27.976;2024-02-26T03:21:34;16.03;;;9.47;;
9238;SDS011;4654;43.242;27.976;2024-02-26T03:24:01;14.70;;;9.17;;
9238;SDS011;4654;43.242;27.976;2024-02-26T03:26:28;13.63;;;9.37;;
9238;SDS011;4654;43.242;27.976;2024-02-26T03:28:56;16.63;;;9.20;;
9238;SDS011;4654;43.242;27.976;2024-02-26T03:31:25;14.33;;;9.47;;
9238;SDS011;4654;43.242;27.976;2024-02-26T03:33:52;18.10;;;9.17;;
9238;SDS011;4654;43.242;27.976;2024-02-26T03:36:19;15.83;;;9.20;;
9238;SDS011;4654;43.242;27.976;2024-02-26T03:38:46;17.67;;;9.30;;
9238;SDS011;4654;43.242;27.976;2024-02-26T03:41:14;17.90;;;9.93;;
9238;SDS011;4654;43.242;27.976;2024-02-26T03:43:41;18.80;;;9.83;;
9238;SDS011;4654;43.242;27.976;2024-02-26T03:46:08;17.47;;;10.90;;
9238;SDS011;4654;43.242;27.976;2024-02-26T03:48:38;16.67;;;9.43;;
9238;SDS011;4654;43.242;27.976;2024-02-26T03:51:05;20.03;;;10.63;;
9238;SDS011;4654;43.242;27.976;2024-02-26T03:53:32;16.40;;;9.70;;
9238;SDS011;4654;43.242;27.976;2024-02-26T03:56:02;16.70;;;10.20;;
9238;SDS011;4654;43.242;27.976;2024-02-26T03:58:30;21.43;;;11.27;;
9238;SDS011;4654;43.242;27.976;2024-02-26T04:00:58;16.50;;;10.00;;
9238;SDS011;4654;43.242;27.976;2024-02-26T04:03:25;21.70;;;11.60;;
9238;SDS011;4654;43.242;27.976;2024-02-26T04:05:54;22.43;;;11.13;;
9238;SDS011;4654;43.242;27.976;2024-02-26T04:08:21;22.97;;;11.63;;
9238;SDS011;4654;43.242;27.976;2024-02-26T04:10:49;22.07;;;12.10;;
9238;SDS011;4654;43.242;27.976;2024-02-26T04:13:17;18.27;;;10.07;;
9238;SDS011;4654;43.242;27.976;2024-02-26T04:15:44;21.77;;;11.17;;
9238;SDS011;4654;43.242;27.976;2024-02-26T04:18:12;21.87;;;11.00;;
9238;SDS011;4654;43.242;27.976;2024-02-26T04:20:39;23.73;;;12.80;;
9238;SDS011;4654;43.242;27.976;2024-02-26T04:23:08;24.90;;;12.87;;
9238;SDS011;4654;43.242;27.976;2024-02-26T04:25:36;21.80;;;11.70;;
9238;SDS011;4654;43.242;27.976;2024-02-26T04:28:03;21.57;;;11.20;;
9238;SDS011;4654;43.242;27.976;2024-02-26T04:30:31;21.70;;;11.03;;
9238;SDS011;4654;43.242;27.976;2024-02-26T04:32:58;19.43;;;10.77;;
9238;SDS011;4654;43.242;27.976;2024-02-26T04:35:25;19.23;;;11.17;;
9238;SDS011;4654;43.242;27.976;2024-02-26T04:37:52;17.57;;;10.20;;
9238;SDS011;4654;43.242;27.976;2024-02-26T04:40:21;22.77;;;11.53;;
9238;SDS011;4654;43.242;27.976;2024-02-26T04:42:49;29.63;;;11.60;;
9238;SDS011;4654;43.242;27.976;2024-02-26T04:45:16;16.83;;;11.03;;
9238;SDS011;4654;43.242;27.976;2024-02-26T04:47:43;20.73;;;11.47;;
9238;SDS011;4654;43.242;27.976;2024-02-26T04:50:10;19.87;;;10.97;;
9238;SDS011;4654;43.242;27.976;2024-02-26T04:52:37;20.97;;;11.40;;
9238;SDS011;4654;43.242;27.976;2024-02-26T04:55:05;24.87;;;10.77;;
9238;SDS011;4654;43.242;27.976;2024-02-26T04:57:34;19.33;;;10.37;;
9238;SDS011;4654;43.242;27.976;2024-02-26T05:00:01;20.23;;;10.60;;
9238;SDS011;4654;43.242;27.976;2024-02-26T05:02:30;22.77;;;10.23;;
9238;SDS011;4654;43.242;27.976;2024-02-26T05:04:58;16.43;;;10.30;;
9238;SDS011;4654;43.242;27.976;2024-02-26T05:07:26;20.10;;;10.37;;
9238;SDS011;4654;43.242;27.976;2024-02-26T05:09:53;18.13;;;10.47;;
9238;SDS011;4654;43.242;27.976;2024-02-26T05:12:21;22.53;;;12.80;;
9238;SDS011;4654;43.242;27.976;2024-02-26T05:14:49;18.57;;;10.43;;
9238;SDS011;4654;43.242;27.976;2024-02-26T05:17:17;20.60;;;11.53;;
9238;SDS011;4654;43.242;27.976;2024-02-26T05:19:44;30.30;;;13.63;;
9238;SDS011;4654;43.242;27.976;2024-02-26T05:22:11;29.43;;;14.13;;
9238;SDS011;4654;43.242;27.976;2024-02-26T05:24:38;30.40;;;14.50;;
9238;SDS011;4654;43.242;27.976;2024-02-26T05:27:05;21.90;;;13.70;;
9238;SDS011;4654;43.242;27.976;2024-02-26T05:29:33;22.03;;;11.77;;
9238;SDS011;4654;43.242;27.976;2024-02-26T05:32:02;22.13;;;10.87;;
9238;SDS011;4654;43.242;27.976;2024-02-26T05:34:29;24.20;;;12.30;;
9238;SDS011;4654;43.242;27.976;2024-02-26T05:36:57;23.30;;;11.30;;
9238;SDS011;4654;43.242;27.976;2024-02-26T05:39:24;22.23;;;11.17;;
9238;SDS011;4654;43.242;27.976;2024-02-26T05:41:51;13.03;;;9.73;;
9238;SDS011;4654;43.242;27.976;2024-02-26T05:44:20;18.47;;;9.67;;
9238;SDS011;4654;43.242;27.976;2024-02-26T05:46:49;54.10;;;36.07;;
9238;SDS011;4654;43.242;27.976;2024-02-26T05:49:17;20.00;;;12.37;;
9238;SDS011;4654;43.242;27.976;2024-02-26T05:51:44;16.20;;;9.03;;
9238;SDS011;4654;43.242;27.976;2024-02-26T05:54:12;18.67;;;7.83;;
9238;SDS011;4654;43.242;27.976;2024-02-26T05:56:39;15.10;;;7.27;;
9238;SDS011;4654;43.242;27.976;2024-02-26T05:59:06;13.07;;;6.77;;
9238;SDS011;4654;43.242;27.976;2024-02-26T06:01:33;11.60;;;6.20;;
9238;SDS011;4654;43.242;27.976;2024-02-26T06:04:00;16.03;;;6.63;;
9238;SDS011;4654;43.242;27.976;2024-02-26T06:06:29;12.13;;;5.63;;
9238;SDS011;4654;43.242;27.976;2024-02-26T06:08:57;10.67;;;6.00;;
9238;SDS011;4654;43.242;27.976;2024-02-26T06:11:24;8.63;;;5.30;;
9238;SDS011;4654;43.242;27.976;2024-02-26T06:13:51;9.80;;;5.13;;
9238;SDS011;4654;43.242;27.976;2024-02-26T06:16:18;10.83;;;5.03;;
9238;SDS011;4654;43.242;27.976;2024-02-26T06:18:45;10.57;;;5.50;;
9238;SDS011;4654;43.242;27.976;2024-02-26T06:21:13;10.57;;;5.37;;
9238;SDS011;4654;43.242;27.976;2024-02-26T06:23:41;9.43;;;5.13;;
9238;SDS011;4654;43.242;27.976;2024-02-26T06:26:08;11.13;;;4.95;;
9238;SDS011;4654;43.242;27.976;2024-02-26T06:28:36;7.43;;;4.10;;
9238;SDS011;4654;43.242;27.976;2024-02-26T06:31:05;11.00;;;5.25;;
9238;SDS011;4654;43.242;27.976;2024-02-26T06:33:33;7.07;;;4.70;;
9238;SDS011;4654;43.242;27.976;2024-02-26T06:36:00;8.82;;;4.90;;
9238;SDS011;4654;43.242;27.976;2024-02-26T06:38:27;8.47;;;4.40;;
9238;SDS011;4654;43.242;27.976;2024-02-26T06:40:56;8.75;;;4.80;;
9238;SDS011;4654;43.242;27.976;2024-02-26T06:43:23;7.50;;;4.20;;
9238;SDS011;4654;43.242;27.976;2024-02-26T06:45:50;10.05;;;4.40;;
9238;SDS011;4654;43.242;27.976;2024-02-26T06:48:18;9.85;;;4.70;;
9238;SDS011;4654;43.242;27.976;2024-02-26T06:50:45;10.80;;;5.88;;
9238;SDS011;4654;43.242;27.976;2024-02-26T06:53:12;12.45;;;6.07;;
9238;SDS011;4654;43.242;27.976;2024-02-26T06:55:39;8.70;;;5.50;;
9238;SDS011;4654;43.242;27.976;2024-02-26T06:58:08;9.32;;;4.78;;
9238;SDS011;4654;43.242;27.976;2024-02-26T07:00:35;12.68;;;7.45;;
9238;SDS011;4654;43.242;27.976;2024-02-26T07:03:03;7.60;;;4.55;;
9238;SDS011;4654;43.242;27.976;2024-02-26T07:05:30;6.97;;;4.93;;
9238;SDS011;4654;43.242;27.976;2024-02-26T07:07:57;8.23;;;5.38;;
9238;SDS011;4654;43.242;27.976;2024-02-26T07:10:25;6.30;;;4.03;;
9238;SDS011;4654;43.242;27.976;2024-02-26T07:12:52;10.15;;;5.40;;
9238;SDS011;4654;43.242;27.976;2024-02-26T07:15:20;10.60;;;5.15;;
9238;SDS011;4654;43.242;27.976;2024-02-26T07:17:47;8.50;;;4.63;;
9238;SDS011;4654;43.242;27.976;2024-02-26T07:20:15;7.85;;;5.40;;
9238;SDS011;4654;43.242;27.976;2024-02-26T07:22:43;9.10;;;4.30;;
9238;SDS011;4654;43.242;27.976;2024-02-26T07:25:10;8.02;;;4.53;;
9238;SDS011;4654;43.242;27.976;2024-02-26T07:27:38;7.82;;;4.68;;
9238;SDS011;4654;43.242;27.976;2024-02-26T07:30:07;7.10;;;3.85;;
9238;SDS011;4654;43.242;27.976;2024-02-26T07:32:36;9.00;;;4.60;;
9238;SDS011;4654;43.242;27.976;2024-02-26T07:35:03;7.22;;;4.30;;
9238;SDS011;4654;43.242;27.976;2024-02-26T07:37:31;9.05;;;4.82;;
9238;SDS011;4654;43.242;27.976;2024-02-26T07:39:58;7.78;;;4.43;;
9238;SDS011;4654;43.242;27.976;2024-02-26T07:42:25;7.30;;;4.75;;
9238;SDS011;4654;43.242;27.976;2024-02-26T07:44:53;6.43;;;4.82;;
9238;SDS011;4654;43.242;27.976;2024-02-26T07:47:21;6.57;;;4.63;;
9238;SDS011;4654;43.242;27.976;2024-02-26T07:49:49;6.22;;;4.68;;
9238;SDS011;4654;43.242;27.976;2024-02-26T07:52:16;7.93;;;4.93;;
9238;SDS011;4654;43.242;27.976;2024-02-26T07:54:44;10.85;;;5.47;;
9238;SDS011;4654;43.242;27.976;2024-02-26T07:57:11;6.63;;;4.50;;
9238;SDS011;4654;43.242;27.976;2024-02-26T07:59:41;7.50;;;4.50;;
9238;SDS011;4654;43.242;27.976;2024-02-26T08:02:10;6.35;;;4.80;;
9238;SDS011;4654;43.242;27.976;2024-02-26T08:04:37;7.57;;;4.40;;
9238;SDS011;4654;43.242;27.976;2024-02-26T08:07:06;6.88;;;4.47;;
9238;SDS011;4654;43.242;27.976;2024-02-26T08:09:33;9.18;;;4.97;;
9238;SDS011;4654;43.242;27.976;2024-02-26T08:12:00;8.90;;;4.65;;
9238;SDS011;4654;43.242;27.976;2024-02-26T08:14:27;7.28;;;4.50;;
9238;SDS011;4654;43.242;27.976;2024-02-26T08:16:54;10.35;;;4.57;;
9238;SDS011;4654;43.242;27.976;2024-02-26T08:19:22;6.18;;;3.83;;
9238;SDS011;4654;43.242;27.976;2024-02-26T08:21:49;5.53;;;3.95;;
9238;SDS011;4654;43.242;27.976;2024-02-26T08:24:18;6.68;;;3.92;;
9238;SDS011;4654;43.242;27.976;2024-02-26T08:26:45;5.68;;;3.80;;
9238;SDS011;4654;43.242;27.976;2024-02-26T08:29:12;7.22;;;4.82;;
9238;SDS011;4654;43.242;27.976;2024-02-26T08:31:40;5.47;;;3.63;;
9238;SDS011;4654;43.242;27.976;2024-02-26T08:34:07;7.13;;;4.25;;
9238;SDS011;4654;43.242;27.976;2024-02-26T08:36:34;6.93;;;4.10;;
9238;SDS011;4654;43.242;27.976;2024-02-26T08:39:01;6.20;;;3.78;;
9238;SDS011;4654;43.242;27.976;2024-02-26T08:41:30;7.68;;;4.57;;
9238;SDS011;4654;43.242;27.976;2024-02-26T08:43:58;7.53;;;4.32;;
9238;SDS011;4654;43.242;27.976;2024-02-26T08:46:25;10.05;;;4.57;;
9238;SDS011;4654;43.242;27.976;2024-02-26T08:48:52;6.35;;;3.72;;
9238;SDS011;4654;43.242;27.976;2024-02-26T08:51:19;9.15;;;4.95;;
9238;SDS011;4654;43.242;27.976;2024-02-26T08:53:46;8.63;;;4.43;;
9238;SDS011;4654;43.242;27.976;2024-02-26T08:56:13;6.82;;;3.80;;
9238;SDS011;4654;43.242;27.976;2024-02-26T08:58:44;6.63;;;3.60;;
9238;SDS011;4654;43.242;27.976;2024-02-26T09:01:13;7.88;;;3.97;;
9238;SDS011;4654;43.242;27.976;2024-02-26T09:03:41;8.35;;;4.30;;
9238;SDS011;4654;43.242;27.976;2024-02-26T09:06:08;8.27;;;4.40;;
9238;SDS011;4654;43.242;27.976;2024-02-26T09:08:37;8.98;;;4.55;;
9238;SDS011;4654;43.242;27.976;2024-02-26T09:11:04;9.20;;;4.80;;
9238;SDS011;4654;43.242;27.976;2024-02-26T09:13:31;7.50;;;4.20;;
9238;SDS011;4654;43.242;27.976;2024-02-26T09:16:00;8.27;;;3.83;;
9238;SDS011;4654;43.242;27.976;2024-02-26T09:18:28;10.80;;;4.15;;
9238;SDS011;4654;43.242;27.976;2024-02-26T09:20:55;15.70;;;4.80;;
9238;SDS011;4654;43.242;27.976;2024-02-26T09:23:22;5.75;;;3.95;;
9238;SDS011;4654;43.242;27.976;2024-02-26T09:25:49;9.35;;;4.32;;
9238;SDS011;4654;43.242;27.976;2024-02-26T09:28:16;6.00;;;4.28;;
9238;SDS011;4654;43.242;27.976;2024-02-26T09:30:43;8.65;;;4.60;;
9238;SDS011;4654;43.242;27.976;2024-02-26T09:33:13;11.15;;;4.53;;
9238;SDS011;4654;43.242;27.976;2024-02-26T09:35:40;8.45;;;4.50;;
9238;SDS011;4654;43.242;27.976;2024-02-26T09:38:07;9.13;;;4.30;;
9238;SDS011;4654;43.242;27.976;2024-02-26T09:40:34;7.43;;;4.45;;
9238;SDS011;4654;43.242;27.976;2024-02-26T09:43:02;10.27;;;4.50;;
9238;SDS011;4654;43.242;27.976;2024-02-26T09:45:32;5.78;;;4.10;;
9238;SDS011;4654;43.242;27.976;2024-02-26T09:48:01;12.27;;;4.63;;
9238;SDS011;4654;43.242;27.976;2024-02-26T09:50:32;7.75;;;4.65;;
9238;SDS011;4654;43.242;27.976;2024-02-26T09:52:59;11.73;;;4.97;;
9238;SDS011;4654;43.242;27.976;2024-02-26T09:55:28;8.82;;;4.40;;
9238;SDS011;4654;43.242;27.976;2024-02-26T09:57:55;9.85;;;4.50;;
9238;SDS011;4654;43.242;27.976;2024-02-26T10:00:23;10.25;;;4.80;;
9238;SDS011;4654;43.242;27.976;2024-02-26T10:02:55;7.47;;;4.15;;
9238;SDS011;4654;43.242;27.976;2024-02-26T10:05:24;6.85;;;4.38;;
9238;SDS011;4654;43.242;27.976;2024-02-26T10:07:54;7.53;;;4.10;;
9238;SDS011;4654;43.242;27.976;2024-02-26T10:10:23;6.57;;;4.30;;
9238;SDS011;4654;43.242;27.976;2024-02-26T10:12:50;5.82;;;3.90;;
9238;SDS011;4654;43.242;27.976;2024-02-26T10:15:17;6.13;;;3.70;;
9238;SDS011;4654;43.242;27.976;2024-02-26T10:17:45;7.32;;;3.65;;
9238;SDS011;4654;43.242;27.976;2024-02-26T10:20:13;6.45;;;4.13;;
9238;SDS011;4654;43.242;27.976;2024-02-26T10:22:42;4.57;;;3.58;;
9238;SDS011;4654;43.242;27.976;2024-02-26T10:25:11;9.18;;;3.92;;
9238;SDS011;4654;43.242;27.976;2024-02-26T10:27:40;5.50;;;3.97;;
9238;SDS011;4654;43.242;27.976;2024-02-26T10:30:15;6.45;;;3.83;;
9238;SDS011;4654;43.242;27.976;2024-02-26T10:32:44;8.45;;;3.33;;
9238;SDS011;4654;43.242;27.976;2024-02-26T10:35:12;8.52;;;4.28;;
9238;SDS011;4654;43.242;27.976;2024-02-26T10:37:40;6.82;;;4.10;;
9238;SDS011;4654;43.242;27.976;2024-02-26T10:40:09;8.88;;;3.90;;
9238;SDS011;4654;43.242;27.976;2024-02-26T10:42:39;8.18;;;3.95;;
9238;SDS011;4654;43.242;27.976;2024-02-26T10:45:06;7.65;;;4.25;;
9238;SDS011;4654;43.242;27.976;2024-02-26T10:47:34;7.13;;;4.20;;
9238;SDS011;4654;43.242;27.976;2024-02-26T10:50:04;10.63;;;3.90;;
9238;SDS011;4654;43.242;27.976;2024-02-26T10:52:33;8.25;;;4.53;;
9238;SDS011;4654;43.242;27.976;2024-02-26T10:55:01;9.68;;;4.47;;
9238;SDS011;4654;43.242;27.976;2024-02-26T10:57:31;7.80;;;3.75;;
9238;SDS011;4654;43.242;27.976;2024-02-26T11:00:03;7.85;;;4.28;;
9238;SDS011;4654;43.242;27.976;2024-02-26T11:02:32;6.32;;;3.75;;
9238;SDS011;4654;43.242;27.976;2024-02-26T11:05:00;12.40;;;3.90;;
9238;SDS011;4654;43.242;27.976;2024-02-26T11:07:30;11.60;;;4.32;;
9238;SDS011;4654;43.242;27.976;2024-02-26T11:09:58;15.20;;;4.82;;
9238;SDS011;4654;43.242;27.976;2024-02-26T11:12:27;10.13;;;4.15;;
9238;SDS011;4654;43.242;27.976;2024-02-26T11:14:57;7.60;;;3.97;;
9238;SDS011;4654;43.242;27.976;2024-02-26T11:17:27;11.88;;;4.75;;
9238;SDS011;4654;43.242;27.976;2024-02-26T11:19:57;12.80;;;6.17;;
9238;SDS011;4654;43.242;27.976;2024-02-26T11:22:25;9.97;;;4.40;;
9238;SDS011;4654;43.242;27.976;2024-02-26T11:24:52;7.57;;;4.20;;
9238;SDS011;4654;43.242;27.976;2024-02-26T11:27:23;10.83;;;4.57;;
9238;SDS011;4654;43.242;27.976;2024-02-26T11:29:56;7.87;;;4.20;;
9238;SDS011;4654;43.242;27.976;2024-02-26T11:32:26;10.60;;;4.97;;
9238;SDS011;4654;43.242;27.976;2024-02-26T11:34:55;10.90;;;5.67;;
9238;SDS011;4654;43.242;27.976;2024-02-26T11:37:23;9.73;;;4.70;;
9238;SDS011;4654;43.242;27.976;2024-02-26T11:39:51;10.37;;;4.67;;
9238;SDS011;4654;43.242;27.976;2024-02-26T11:42:23;10.67;;;4.63;;
9238;SDS011;4654;43.242;27.976;2024-02-26T11:44:51;10.35;;;4.85;;
9238;SDS011;4654;43.242;27.976;2024-02-26T11:47:20;12.63;;;5.70;;
9238;SDS011;4654;43.242;27.976;2024-02-26T11:49:49;8.27;;;3.80;;
9238;SDS011;4654;43.242;27.976;2024-02-26T11:52:16;9.83;;;5.20;;
9238;SDS011;4654;43.242;27.976;2024-02-26T11:54:44;10.53;;;4.73;;
9238;SDS011;4654;43.242;27.976;2024-02-26T11:57:21;10.40;;;4.53;;
9238;SDS011;4654;43.242;27.976;2024-02-26T11:59:49;8.43;;;4.30;;
9238;SDS011;4654;43.242;27.976;2024-02-26T12:05:11;8.43;;;4.67;;
9238;SDS011;4654;43.242;27.976;2024-02-26T12:07:42;10.37;;;4.13;;
9238;SDS011;4654;43.242;27.976;2024-02-26T12:10:15;7.23;;;3.67;;
9238;SDS011;4654;43.242;27.976;2024-02-26T12:12:47;7.20;;;4.50;;
9238;SDS011;4654;43.242;27.976;2024-02-26T12:15:15;12.00;;;4.97;;
9238;SDS011;4654;43.242;27.976;2024-02-26T12:17:49;8.27;;;4.27;;
9238;SDS011;4654;43.242;27.976;2024-02-26T12:20:18;10.83;;;4.40;;
9238;SDS011;4654;43.242;27.976;2024-02-26T12:22:46;6.87;;;4.13;;
9238;SDS011;4654;43.242;27.976;2024-02-26T12:25:14;10.00;;;4.47;;
9238;SDS011;4654;43.242;27.976;2024-02-26T12:27:42;11.00;;;4.70;;
9238;SDS011;4654;43.242;27.976;2024-02-26T12:30:10;10.17;;;4.13;;
9238;SDS011;4654;43.242;27.976;2024-02-26T12:32:38;8.17;;;4.13;;
9238;SDS011;4654;43.242;27.976;2024-02-26T12:35:07;9.23;;;4.90;;
9238;SDS011;4654;43.242;27.976;2024-02-26T12:37:34;9.63;;;4.17;;
9238;SDS011;4654;43.242;27.976;2024-02-26T12:40:03;10.70;;;5.03;;
9238;SDS011;4654;43.242;27.976;2024-02-26T12:42:33;11.07;;;4.53;;
9238;SDS011;4654;43.242;27.976;2024-02-26T12:45:05;9.90;;;4.67;;
9238;SDS011;4654;43.242;27.976;2024-02-26T12:47:37;10.30;;;4.90;;
9238;SDS011;4654;43.242;27.976;2024-02-26T12:50:07;11.07;;;4.53;;
9238;SDS011;4654;43.242;27.976;2024-02-26T12:52:35;11.10;;;4.33;;
9238;SDS011;4654;43.242;27.976;2024-02-26T12:55:04;7.13;;;4.40;;
9238;SDS011;4654;43.242;27.976;2024-02-26T12:57:35;15.57;;;4.83;;
9238;SDS011;4654;43.242;27.976;2024-02-26T13:00:04;10.20;;;4.63;;
9238;SDS011;4654;43.242;27.976;2024-02-26T13:02:34;8.57;;;4.60;;
9238;SDS011;4654;43.242;27.976;2024-02-26T13:05:03;9.80;;;4.27;;
9238;SDS011;4654;43.242;27.976;2024-02-26T13:07:34;9.87;;;4.53;;
9238;SDS011;4654;43.242;27.976;2024-02-26T13:10:07;15.07;;;5.37;;
9238;SDS011;4654;43.242;27.976;2024-02-26T13:12:37;8.53;;;4.43;;
9238;SDS011;4654;43.242;27.976;2024-02-26T13:15:04;8.70;;;4.43;;
9238;SDS011;4654;43.242;27.976;2024-02-26T13:17:32;8.47;;;4.17;;
9238;SDS011;4654;43.242;27.976;2024-02-26T13:19:59;12.20;;;4.60;;
9238;SDS011;4654;43.242;27.976;2024-02-26T13:22:27;7.83;;;5.00;;
9238;SDS011;4654;43.242;27.976;2024-02-26T13:25:00;7.80;;;4.30;;
9238;SDS011;4654;43.242;27.976;2024-02-26T13:27:28;13.63;;;5.33;;
9238;SDS011;4654;43.242;27.976;2024-02-26T13:30:02;9.47;;;4.90;;
9238;SDS011;4654;43.242;27.976;2024-02-26T13:32:32;11.70;;;5.03;;
9238;SDS011;4654;43.242;27.976;2024-02-26T13:35:07;8.87;;;4.53;;
9238;SDS011;4654;43.242;27.976;2024-02-26T13:37:35;11.27;;;5.07;;
9238;SDS011;4654;43.242;27.976;2024-02-26T13:40:08;10.37;;;5.67;;
9238;SDS011;4654;43.242;27.976;2024-02-26T13:42:36;10.63;;;5.03;;
9238;SDS011;4654;43.242;27.976;2024-02-26T13:45:04;10.10;;;5.70;;
9238;SDS011;4654;43.242;27.976;2024-02-26T13:47:33;12.17;;;5.23;;
9238;SDS011;4654;43.242;27.976;2024-02-26T13:50:00;10.83;;;5.27;;
9238;SDS011;4654;43.242;27.976;2024-02-26T13:52:27;10.53;;;5.60;;
9238;SDS011;4654;43.242;27.976;2024-02-26T13:54:57;10.67;;;5.10;;
9238;SDS011;4654;43.242;27.976;2024-02-26T13:57:26;13.47;;;5.63;;
9238;SDS011;4654;43.242;27.976;2024-02-26T13:59:54;13.30;;;6.20;;
9238;SDS011;4654;43.242;27.976;2024-02-26T14:02:21;12.50;;;5.80;;
9238;SDS011;4654;43.242;27.976;2024-02-26T14:04:48;13.13;;;5.50;;
9238;SDS011;4654;43.242;27.976;2024-02-26T14:07:15;13.83;;;6.00;;
9238;SDS011;4654;43.242;27.976;2024-02-26T14:09:43;9.40;;;5.77;;
9238;SDS011;4654;43.242;27.976;2024-02-26T14:12:11;16.47;;;6.00;;
9238;SDS011;4654;43.242;27.976;2024-02-26T14:14:39;10.13;;;5.60;;
9238;SDS011;4654;43.242;27.976;2024-02-26T14:17:07;11.50;;;6.07;;
9238;SDS011;4654;43.242;27.976;2024-02-26T14:19:35;12.63;;;5.93;;
9238;SDS011;4654;43.242;27.976;2024-02-26T14:22:04;9.90;;;5.80;;
9238;SDS011;4654;43.242;27.976;2024-02-26T14:24:31;10.10;;;5.63;;
9238;SDS011;4654;43.242;27.976;2024-02-26T14:26:59;13.00;;;6.90;;
9238;SDS011;4654;43.242;27.976;2024-02-26T14:29:26;14.40;;;6.30;;
9238;SDS011;4654;43.242;27.976;2024-02-26T14:31:55;12.63;;;6.00;;
9238;SDS011;4654;43.242;27.976;2024-02-26T14:34:22;10.00;;;6.23;;
9238;SDS011;4654;43.242;27.976;2024-02-26T14:36:49;15.30;;;6.57;;
9238;SDS011;4654;43.242;27.976;2024-02-26T14:39:16;10.73;;;5.53;;
9238;SDS011;4654;43.242;27.976;2024-02-26T14:41:43;13.43;;;6.67;;
9238;SDS011;4654;43.242;27.976;2024-02-26T14:44:10;13.00;;;6.47;;
9238;SDS011;4654;43.242;27.976;2024-02-26T14:46:38;13.03;;;6.10;;
9238;SDS011;4654;43.242;27.976;2024-02-26T14:49:05;13.13;;;6.77;;
9238;SDS011;4654;43.242;27.976;2024-02-26T14:51:33;15.50;;;6.73;;
9238;SDS011;4654;43.242;27.976;2024-02-26T14:54:00;11.80;;;6.43;;
9238;SDS011;4654;43.242;27.976;2024-02-26T14:56:27;10.90;;;6.33;;
9238;SDS011;4654;43.242;27.976;2024-02-26T14:58:55;16.57;;;7.27;;